Time;durP1;ratioP1;P1;durP2;ratioP2;P2;SDS_P1;SDS_P2;PMS_P1;PMS_P2;Temp;Humidity;BMP_temperature;BMP_pressure;BME280_temperature;BME280_humidity;BME280_pressure;Samples;Min_cycle;Max_cycle;Signal;HPM_P1;HPM_P2
2020/12/11 00:01:31;;;;;;;1.40;1.40;;;;;;;18.45;45.84;99674.22;5051098;28;20299;-63
2020/12/11 00:03:57;;;;;;;1.70;1.60;;;;;;;18.48;45.83;99671.16;5051081;28;20516;-63
2020/12/11 00:06:24;;;;;;;1.50;1.40;;;;;;;18.52;45.89;99661.59;5051186;28;20292;-61
2020/12/11 00:08:50;;;;;;;1.20;1.20;;;;;;;18.55;45.53;99653.06;5051042;28;20204;-59
2020/12/11 00:11:16;;;;;;;1.50;1.40;;;;;;;18.57;45.88;99637.47;5049720;28;20188;-59
2020/12/11 00:13:43;;;;;;;1.40;1.30;;;;;;;18.58;45.53;99638.28;5049928;28;20181;-62
2020/12/11 00:16:09;;;;;;;1.67;1.57;;;;;;;18.59;45.37;99629.13;5050916;28;20263;-58
2020/12/11 00:18:36;;;;;;;1.50;1.40;;;;;;;18.57;45.42;99626.63;5050800;28;20208;-58
2020/12/11 00:21:02;;;;;;;1.53;1.43;;;;;;;18.53;45.78;99622.63;5050877;28;20592;-59
2020/12/11 00:23:28;;;;;;;1.70;1.60;;;;;;;18.52;45.75;99622.81;5050918;28;20286;-58
2020/12/11 00:26:01;;;;;;;1.50;1.40;;;;;;;18.46;45.73;99619.03;5050944;28;20177;-63
2020/12/11 00:28:30;;;;;;;1.40;1.40;;;;;;;18.45;45.76;99602.94;5050894;28;20287;-59
2020/12/11 00:30:56;;;;;;;1.40;1.40;;;;;;;18.41;45.48;99602.50;5051006;28;20206;-66
2020/12/11 00:33:23;;;;;;;1.60;1.50;;;;;;;18.33;45.60;99598.06;5050934;28;20635;-66
2020/12/11 00:35:49;;;;;;;1.60;1.50;;;;;;;18.26;45.47;99574.66;5050729;28;20615;-60
2020/12/11 00:38:16;;;;;;;1.70;1.60;;;;;;;18.19;45.64;99568.31;5050750;28;20216;-60
2020/12/11 00:40:42;;;;;;;1.67;1.57;;;;;;;18.18;45.60;99566.63;5050638;28;20212;-60
2020/12/11 00:43:08;;;;;;;1.47;1.40;;;;;;;18.19;45.85;99563.72;5050762;28;20695;-60
2020/12/11 00:45:34;;;;;;;1.70;1.60;;;;;;;18.21;45.38;99544.56;5033174;28;20184;-60
2020/12/11 00:48:00;;;;;;;1.60;1.50;;;;;;;18.21;45.33;99558.94;5052272;28;20228;-66
2020/12/11 00:50:27;;;;;;;1.70;1.60;;;;;;;18.20;45.59;99554.56;5054084;28;20196;-59
2020/12/11 00:52:53;;;;;;;1.60;1.50;;;;;;;18.20;45.38;99554.56;5054388;28;20215;-59
2020/12/11 00:55:21;;;;;;;1.57;1.47;;;;;;;18.20;45.57;99553.72;5054121;28;20864;-59
2020/12/11 00:57:48;;;;;;;1.27;1.27;;;;;;;18.18;45.75;99551.22;5053051;28;20299;-58
2020/12/11 01:00:17;;;;;;;1.60;1.50;;;;;;;18.17;45.62;99549.53;5054012;28;20204;-60
2020/12/11 01:02:43;;;;;;;1.50;1.40;;;;;;;18.15;46.12;99545.34;5054168;28;20191;-60
2020/12/11 01:05:09;;;;;;;1.57;1.47;;;;;;;18.15;45.69;99548.06;5053993;28;20202;-60
2020/12/11 01:07:35;;;;;;;1.30;1.30;;;;;;;18.14;46.00;99544.53;5053996;28;20204;-60
2020/12/11 01:10:01;;;;;;;1.30;1.30;;;;;;;18.14;45.74;99543.69;5053953;28;20237;-60
2020/12/11 01:12:28;;;;;;;1.33;1.30;;;;;;;18.13;46.10;99542.00;5054077;28;20191;-60
2020/12/11 01:14:54;;;;;;;1.60;1.50;;;;;;;18.13;45.64;99552.84;5052791;28;20621;-60
2020/12/11 01:17:20;;;;;;;1.87;1.77;;;;;;;18.11;45.83;99550.31;5053672;28;20228;-59
2020/12/11 01:19:46;;;;;;;1.50;1.40;;;;;;;18.10;46.08;99544.06;5052674;28;20629;-59
2020/12/11 01:22:12;;;;;;;1.60;1.50;;;;;;;18.08;45.83;99543.44;5053668;28;20184;-59
2020/12/11 01:24:38;;;;;;;1.60;1.50;;;;;;;18.08;45.73;99532.59;5053533;28;20191;-59
2020/12/11 01:27:05;;;;;;;1.43;1.40;;;;;;;18.10;45.84;99527.81;5053479;28;20188;-59
2020/12/11 01:29:31;;;;;;;1.33;1.30;;;;;;;18.15;45.83;99526.41;5053524;28;20184;-67
2020/12/11 01:32:00;;;;;;;1.30;1.30;;;;;;;18.20;46.17;99515.81;5053485;28;20499;-66
2020/12/11 01:34:27;;;;;;;1.20;1.20;;;;;;;18.25;46.01;99510.69;5053477;28;20215;-67
2020/12/11 01:36:53;;;;;;;1.60;1.50;;;;;;;18.29;46.16;99509.25;5053650;28;20195;-63
2020/12/11 01:39:19;;;;;;;1.70;1.60;;;;;;;18.33;46.00;99513.25;5053455;28;20558;-63
2020/12/11 01:41:50;;;;;;;1.40;1.40;;;;;;;18.37;45.84;99500.97;5053288;28;20233;-58
2020/12/11 01:44:17;;;;;;;1.60;1.50;;;;;;;18.41;45.99;99497.66;5053444;28;20510;-58
2020/12/11 01:46:43;;;;;;;1.27;1.27;;;;;;;18.42;46.14;99490.38;5052366;28;20199;-58
2020/12/11 01:49:10;;;;;;;1.47;1.37;;;;;;;18.44;45.98;99484.75;5053248;28;20771;-59
2020/12/11 01:51:36;;;;;;;1.30;1.30;;;;;;;18.46;45.58;99497.09;5052357;28;20188;-58
2020/12/11 01:54:03;;;;;;;1.40;1.40;;;;;;;18.46;45.32;99485.41;5053151;28;20246;-63
2020/12/11 01:56:40;;;;;;;1.50;1.40;;;;;;;18.45;45.56;99475.59;5053128;28;20773;-63
2020/12/11 01:59:08;;;;;;;1.20;1.20;;;;;;;18.42;45.74;99468.69;5050722;28;20220;-66
2020/12/11 02:01:37;;;;;;;1.50;1.40;;;;;;;18.40;45.33;99454.50;5052182;28;20216;-66
2020/12/11 02:04:06;;;;;;;1.50;1.40;;;;;;;18.36;45.60;99450.53;5052873;28;20192;-66
2020/12/11 02:06:32;;;;;;;1.70;1.60;;;;;;;18.34;45.33;99447.19;5051890;28;20184;-63
2020/12/11 02:08:58;;;;;;;1.40;1.30;;;;;;;18.36;45.64;99445.94;5051735;28;20206;-62
2020/12/11 02:11:24;;;;;;;1.40;1.33;;;;;;;18.37;45.24;99436.78;5051955;28;20191;-63
2020/12/11 02:13:51;;;;;;;1.37;1.27;;;;;;;18.38;45.46;99432.22;5052662;28;20180;-63
2020/12/11 02:16:23;;;;;;;1.37;1.37;;;;;;;18.37;45.33;99434.06;5052648;28;20203;-63
2020/12/11 02:18:49;;;;;;;1.60;1.50;;;;;;;18.37;45.66;99414.28;5052613;28;20207;-63
2020/12/11 02:21:16;;;;;;;1.40;1.33;;;;;;;18.36;45.77;99418.03;5051766;28;20216;-63
2020/12/11 02:23:43;;;;;;;1.47;1.40;;;;;;;18.35;45.41;99405.50;5052739;28;20249;-63
2020/12/11 02:26:09;;;;;;;1.50;1.40;;;;;;;18.35;45.49;99402.81;5052650;28;20194;-63
2020/12/11 02:28:35;;;;;;;1.50;1.40;;;;;;;18.38;45.46;99399.69;5052803;28;20687;-60
2020/12/11 02:31:02;;;;;;;1.60;1.50;;;;;;;18.41;45.59;99383.88;5052633;28;20195;-60
2020/12/11 02:33:28;;;;;;;1.20;1.20;;;;;;;18.48;45.88;99375.81;5051588;28;20543;-62
2020/12/11 02:35:54;;;;;;;1.17;1.17;;;;;;;18.52;45.53;99377.06;5058081;28;20195;-58
2020/12/11 02:38:20;;;;;;;1.20;1.20;;;;;;;18.58;45.49;99381.69;5070986;28;20199;-58
2020/12/11 02:40:52;;;;;;;1.40;1.40;;;;;;;18.61;45.62;99384.00;5071941;28;20231;-59
2020/12/11 02:43:18;;;;;;;1.27;1.27;;;;;;;18.63;45.29;99372.97;5072143;28;20669;-58
2020/12/11 02:45:49;;;;;;;1.37;1.33;;;;;;;18.63;45.08;99381.94;5072094;28;20525;-59
2020/12/11 02:48:15;;;;;;;1.43;1.40;;;;;;;18.64;45.36;99380.06;5071995;28;20230;-59
2020/12/11 02:50:41;;;;;;;1.50;1.40;;;;;;;18.62;45.13;99374.84;5071070;28;20274;-59
2020/12/11 02:53:07;;;;;;;1.20;1.20;;;;;;;18.61;45.35;99373.16;5072033;28;20206;-66
2020/12/11 02:55:36;;;;;;;1.23;1.23;;;;;;;18.59;45.54;99371.69;5072040;28;20176;-67
2020/12/11 02:58:02;;;;;;;1.60;1.50;;;;;;;18.55;45.35;99368.53;5071907;28;20203;-63
2020/12/11 03:00:28;;;;;;;1.30;1.30;;;;;;;18.45;45.13;99357.22;5071806;28;20585;-63
2020/12/11 03:02:55;;;;;;;1.57;1.47;;;;;;;18.43;45.27;99362.00;5071998;28;20210;-63
2020/12/11 03:05:21;;;;;;;1.40;1.30;;;;;;;18.38;45.46;99356.34;5071910;28;20198;-63
2020/12/11 03:07:47;;;;;;;1.33;1.33;;;;;;;18.31;45.16;99363.63;5071783;28;20199;-59
2020/12/11 03:10:13;;;;;;;1.40;1.40;;;;;;;18.23;45.69;99363.78;5070541;28;20395;-59
2020/12/11 03:12:39;;;;;;;1.50;1.50;;;;;;;18.16;45.66;99371.00;5072043;28;20567;-58
2020/12/11 03:15:05;;;;;;;1.60;1.50;;;;;;;18.12;45.31;99364.31;5071607;28;20176;-60
2020/12/11 03:17:31;;;;;;;1.43;1.37;;;;;;;18.15;45.70;99358.50;5071406;28;20203;-60
2020/12/11 03:19:58;;;;;;;1.50;1.40;;;;;;;18.15;45.68;99345.81;5070426;28;20231;-66
2020/12/11 03:22:24;;;;;;;1.50;1.40;;;;;;;18.14;45.56;99337.88;5071446;28;20180;-66
2020/12/11 03:24:50;;;;;;;1.30;1.30;;;;;;;18.16;45.46;99336.63;5071534;28;20218;-66
2020/12/11 03:27:16;;;;;;;1.40;1.40;;;;;;;18.19;45.30;99329.97;5070388;28;20721;-66
2020/12/11 03:29:42;;;;;;;1.47;1.37;;;;;;;18.24;45.53;99338.38;5071891;28;20230;-59
2020/12/11 03:32:08;;;;;;;1.50;1.40;;;;;;;18.30;45.31;99332.16;5071709;28;20275;-59
2020/12/11 03:34:34;;;;;;;1.43;1.33;;;;;;;18.37;45.57;99333.00;5072056;28;20191;-66
2020/12/11 03:37:00;;;;;;;1.33;1.33;;;;;;;18.44;45.56;99331.16;5070412;28;20197;-67
2020/12/11 03:39:26;;;;;;;1.60;1.50;;;;;;;18.51;45.60;99332.06;5070553;28;20184;-66
2020/12/11 03:41:52;;;;;;;1.30;1.30;;;;;;;18.57;45.13;99333.94;5071743;28;20282;-66
2020/12/11 03:44:19;;;;;;;1.30;1.30;;;;;;;18.64;45.11;99323.16;5071496;28;20199;-66
2020/12/11 03:46:45;;;;;;;1.40;1.30;;;;;;;18.69;45.33;99326.09;5070627;28;20705;-66
2020/12/11 03:49:11;;;;;;;1.30;1.30;;;;;;;18.70;45.09;99334.03;5071237;28;20207;-63
2020/12/11 03:51:37;;;;;;;1.33;1.33;;;;;;;18.73;45.12;99329.25;5071234;28;20187;-63
2020/12/11 03:54:03;;;;;;;1.80;1.70;;;;;;;18.70;44.89;99323.19;5071211;28;20270;-63
2020/12/11 03:56:30;;;;;;;1.20;1.20;;;;;;;18.70;45.21;99322.38;5053478;28;20233;-63
2020/12/11 03:58:56;;;;;;;1.50;1.40;;;;;;;18.66;45.22;99319.19;5071019;28;20336;-63
2020/12/11 04:01:22;;;;;;;1.50;1.40;;;;;;;18.62;45.27;99306.22;5071057;28;20819;-63
2020/12/11 04:03:48;;;;;;;1.43;1.40;;;;;;;18.59;45.28;99317.47;5071132;28;20263;-60
2020/12/11 04:06:15;;;;;;;1.50;1.40;;;;;;;18.53;45.14;99311.00;5071080;28;20215;-60
2020/12/11 04:08:41;;;;;;;1.53;1.43;;;;;;;18.50;44.99;99300.56;5071257;28;20199;-60
2020/12/11 04:11:12;;;;;;;1.37;1.37;;;;;;;18.44;45.17;99322.19;5071401;28;20179;-58
2020/12/11 04:13:38;;;;;;;1.23;1.20;;;;;;;18.35;45.46;99308.84;5070332;28;20180;-59
2020/12/11 04:16:04;;;;;;;1.43;1.40;;;;;;;18.30;45.48;99307.78;5071204;28;20203;-66
2020/12/11 04:18:31;;;;;;;1.50;1.40;;;;;;;18.22;45.23;99310.66;5071101;28;20218;-59
2020/12/11 04:20:57;;;;;;;1.30;1.30;;;;;;;18.20;45.20;99301.88;5069966;28;20199;-61
2020/12/11 04:23:24;;;;;;;1.67;1.57;;;;;;;18.23;45.16;99290.66;5073637;28;20183;-67
2020/12/11 04:25:50;;;;;;;1.40;1.40;;;;;;;18.24;45.15;99284.22;5074943;28;20631;-61
2020/12/11 04:28:16;;;;;;;1.20;1.20;;;;;;;18.22;45.47;99291.69;5074716;28;20192;-66
2020/12/11 04:30:42;;;;;;;1.40;1.40;;;;;;;18.20;45.56;99275.63;5074831;28;20262;-62
2020/12/11 04:33:08;;;;;;;1.47;1.37;;;;;;;18.18;45.68;99269.56;5074633;28;20191;-58
2020/12/11 04:35:34;;;;;;;1.70;1.60;;;;;;;18.17;45.70;99276.03;5073504;28;20529;-59
2020/12/11 04:38:01;;;;;;;1.50;1.50;;;;;;;18.17;45.27;99267.06;5074298;28;20276;-58
2020/12/11 04:40:27;;;;;;;1.20;1.20;;;;;;;18.22;45.45;99264.63;5074435;28;20218;-66
2020/12/11 04:42:54;;;;;;;1.50;1.40;;;;;;;18.27;45.70;99251.31;5074528;28;20191;-63
2020/12/11 04:45:20;;;;;;;1.60;1.50;;;;;;;18.34;45.51;99249.44;5073631;28;20499;-63
2020/12/11 04:47:46;;;;;;;1.40;1.30;;;;;;;18.39;45.55;99233.41;5074455;28;20200;-60
2020/12/11 04:50:17;;;;;;;1.43;1.33;;;;;;;18.42;45.52;99228.41;5073521;28;20199;-60
2020/12/11 04:52:46;;;;;;;1.10;1.10;;;;;;;18.48;45.03;99228.66;5074452;28;20190;-63
2020/12/11 04:55:14;;;;;;;1.33;1.30;;;;;;;18.52;45.08;99225.34;5074428;28;20611;-63
2020/12/11 04:57:45;;;;;;;1.40;1.30;;;;;;;18.55;45.41;99211.38;5073421;28;20203;-60
2020/12/11 05:00:11;;;;;;;1.30;1.30;;;;;;;18.55;44.96;99200.53;5074327;28;20212;-60
2020/12/11 05:02:39;;;;;;;1.40;1.40;;;;;;;18.53;45.42;99191.78;5073270;28;20671;-60
2020/12/11 05:05:05;;;;;;;1.40;1.40;;;;;;;18.51;45.18;99183.03;5074311;28;20187;-62
2020/12/11 05:07:32;;;;;;;1.30;1.30;;;;;;;18.48;44.94;99161.78;5074221;28;20203;-63
2020/12/11 05:09:58;;;;;;;1.50;1.40;;;;;;;18.42;45.07;99167.97;5073179;28;20211;-63
2020/12/11 05:12:24;;;;;;;1.50;1.40;;;;;;;18.40;45.25;99161.94;5074052;28;20191;-60
2020/12/11 05:15:00;;;;;;;1.40;1.40;;;;;;;18.37;44.95;99137.97;5073822;28;20187;-60
2020/12/11 05:17:28;;;;;;;1.60;1.50;;;;;;;18.29;45.13;99143.59;5073731;28;20230;-66
2020/12/11 05:19:55;;;;;;;1.50;1.40;;;;;;;18.23;45.13;99141.72;5073784;28;20549;-66
2020/12/11 05:22:22;;;;;;;1.10;1.10;;;;;;;18.23;45.35;99134.41;5073792;28;20184;-66
2020/12/11 05:24:49;;;;;;;1.50;1.40;;;;;;;18.26;45.22;99122.34;5073839;28;20293;-60
2020/12/11 05:27:43;;;;;;;1.50;1.40;;;;;;;18.26;45.17;99120.47;5073919;28;20207;-66
2020/12/11 05:30:17;;;;;;;1.70;1.60;;;;;;;18.22;44.95;99116.50;5073850;28;20172;-67
2020/12/11 05:32:47;;;;;;;1.40;1.30;;;;;;;18.23;45.27;99101.09;5073696;28;20387;-58
2020/12/11 05:35:21;;;;;;;1.50;1.40;;;;;;;18.27;45.27;99094.22;5073503;28;20258;-59
2020/12/11 05:38:14;;;;;;;1.50;1.40;;;;;;;18.32;45.37;99091.72;5073427;28;20566;-60
2020/12/11 05:40:41;;;;;;;1.60;1.50;;;;;;;18.38;45.53;99091.72;5071652;28;20223;-60
2020/12/11 05:43:17;;;;;;;1.37;1.37;;;;;;;18.45;45.38;99083.59;5073563;28;20277;-59
2020/12/11 05:45:57;;;;;;;1.40;1.30;;;;;;;18.51;45.58;99074.66;5072625;28;20202;-59
2020/12/11 05:48:24;;;;;;;1.33;1.33;;;;;;;18.56;44.91;99063.19;5073108;28;20527;-58
2020/12/11 05:50:50;;;;;;;1.60;1.50;;;;;;;18.62;45.36;99059.63;5073086;28;20607;-59
2020/12/11 05:53:16;;;;;;;1.30;1.30;;;;;;;18.64;45.14;99058.41;5073131;28;20729;-62
2020/12/11 05:55:43;;;;;;;1.30;1.30;;;;;;;18.66;44.85;99053.59;5073140;28;20187;-63
2020/12/11 05:58:11;;;;;;;1.50;1.40;;;;;;;18.67;44.93;99041.72;5072997;28;20195;-59
2020/12/11 06:00:39;;;;;;;1.30;1.30;;;;;;;18.66;44.98;99045.47;5072965;28;20203;-60
2020/12/11 06:03:06;;;;;;;1.37;1.33;;;;;;;18.68;44.91;99037.97;5073293;28;20196;-61
2020/12/11 06:05:35;;;;;;;1.50;1.40;;;;;;;18.67;44.95;99030.06;5073365;28;20187;-67
2020/12/11 06:08:01;;;;;;;1.33;1.30;;;;;;;18.63;45.06;99029.66;5072095;28;20196;-66
2020/12/11 06:10:27;;;;;;;1.40;1.30;;;;;;;18.57;44.81;99025.03;5038893;28;20237;-66
2020/12/11 06:12:53;;;;;;;1.20;1.20;;;;;;;18.50;45.00;99024.22;5071866;28;20779;-60
2020/12/11 06:15:24;;;;;;;1.63;1.53;;;;;;;18.46;45.01;99017.56;5072841;28;20187;-63
2020/12/11 06:18:10;;;;;;;1.50;1.40;;;;;;;18.42;44.89;99016.28;5071694;28;20764;-63
2020/12/11 06:20:37;;;;;;;1.30;1.30;;;;;;;18.35;45.25;99019.00;5056758;28;20300;-63
2020/12/11 06:23:26;;;;;;;1.40;1.33;;;;;;;18.25;45.55;99028.59;5055678;28;20299;-63
2020/12/11 06:25:56;;;;;;;1.60;1.50;;;;;;;18.19;45.12;99032.09;5072614;28;20219;-66
2020/12/11 06:28:38;;;;;;;1.40;1.40;;;;;;;18.18;45.32;99019.59;5072657;28;20257;-60
2020/12/11 06:31:08;;;;;;;1.40;1.40;;;;;;;18.20;45.29;99012.09;5072342;28;20179;-60
2020/12/11 06:33:34;;;;;;;1.30;1.30;;;;;;;18.22;44.99;99004.63;5072389;28;20279;-60
2020/12/11 06:36:01;;;;;;;1.30;1.30;;;;;;;18.18;45.11;98995.22;5072243;28;20223;-60
2020/12/11 06:38:46;;;;;;;1.50;1.40;;;;;;;18.17;45.10;99004.41;5072108;28;20263;-60
2020/12/11 06:41:13;;;;;;;1.27;1.27;;;;;;;18.19;45.33;99005.03;5072842;28;20298;-60
2020/12/11 06:43:43;;;;;;;1.13;1.13;;;;;;;18.22;45.59;99001.94;5072557;28;20184;-60
2020/12/11 06:46:23;;;;;;;1.10;1.10;;;;;;;18.28;45.49;99001.09;5070820;28;20184;-60
2020/12/11 06:49:08;;;;;;;1.30;1.30;;;;;;;18.35;45.26;99007.34;5072106;28;20594;-60
2020/12/11 06:51:46;;;;;;;1.60;1.50;;;;;;;18.42;45.66;99002.72;5072330;28;20210;-61
2020/12/11 06:54:12;;;;;;;1.30;1.30;;;;;;;18.49;45.40;98997.34;5072192;28;20176;-60
2020/12/11 06:56:40;;;;;;;1.40;1.30;;;;;;;18.57;45.17;98986.28;5072112;28;20710;-61
2020/12/11 06:59:28;;;;;;;1.50;1.40;;;;;;;18.61;45.25;98982.09;5071845;28;20208;-60
2020/12/11 07:01:55;;;;;;;1.20;1.20;;;;;;;18.67;45.05;98975.84;5072128;28;20231;-60
2020/12/11 07:04:21;;;;;;;1.30;1.30;;;;;;;18.69;45.24;98961.06;5071222;28;20180;-60
2020/12/11 07:06:53;;;;;;;1.40;1.40;;;;;;;18.70;45.03;98967.31;5071843;28;20266;-61
2020/12/11 07:09:20;;;;;;;1.37;1.33;;;;;;;18.68;44.90;98959.38;5070865;28;20187;-60
2020/12/11 07:11:47;;;;;;;1.60;1.50;;;;;;;18.66;45.00;98957.94;5070551;28;20215;-63
2020/12/11 07:14:13;;;;;;;1.60;1.50;;;;;;;18.64;44.77;98970.84;5071575;28;20184;-63
2020/12/11 07:16:43;;;;;;;1.43;1.33;;;;;;;18.56;45.21;98961.06;5070748;28;20183;-63
2020/12/11 07:19:09;;;;;;;1.27;1.27;;;;;;;18.53;45.24;98952.53;5072150;28;20218;-63
2020/12/11 07:21:36;;;;;;;1.30;1.30;;;;;;;18.47;44.96;98948.78;5071854;28;20247;-63
2020/12/11 07:24:03;;;;;;;1.20;1.20;;;;;;;18.44;45.11;98951.88;5071873;28;20624;-66
2020/12/11 07:26:29;;;;;;;1.30;1.30;;;;;;;18.39;45.08;98954.41;5071629;28;20678;-68
2020/12/11 07:29:06;;;;;;;1.40;1.30;;;;;;;18.34;44.93;98957.75;5070592;28;20207;-66
2020/12/11 07:31:39;;;;;;;1.23;1.23;;;;;;;18.30;45.29;98966.50;5070887;28;20248;-67
2020/12/11 07:34:16;;;;;;;1.30;1.30;;;;;;;18.30;44.98;98964.63;5071604;28;20192;-67
2020/12/11 07:36:45;;;;;;;1.40;1.30;;;;;;;18.30;44.89;98961.09;5071406;28;20611;-66
2020/12/11 07:39:17;;;;;;;1.60;1.50;;;;;;;18.30;45.27;98970.03;5071549;28;20847;-63
2020/12/11 07:41:44;;;;;;;1.10;1.10;;;;;;;18.28;45.38;98955.06;5071592;28;20211;-60
2020/12/11 07:44:11;;;;;;;1.30;1.20;;;;;;;18.25;45.36;98950.06;5071641;28;20538;-63
2020/12/11 07:46:39;;;;;;;1.30;1.30;;;;;;;18.23;45.11;98952.13;5070431;28;20187;-60
2020/12/11 07:49:05;;;;;;;1.30;1.30;;;;;;;18.23;45.50;98954.84;5053772;28;20207;-59
2020/12/11 07:51:32;;;;;;;1.13;1.13;;;;;;;18.20;45.50;98952.53;5071268;28;20184;-60
2020/12/11 07:53:58;;;;;;;1.30;1.30;;;;;;;18.17;45.38;98953.78;5053934;28;20214;-62
2020/12/11 07:56:27;;;;;;;1.20;1.20;;;;;;;18.20;45.18;98952.53;5071439;28;20207;-66
2020/12/11 07:58:53;;;;;;;1.37;1.37;;;;;;;18.23;45.16;98957.56;5074737;28;20209;-63
2020/12/11 08:01:19;;;;;;;1.33;1.23;;;;;;;18.27;45.33;98958.78;5074777;28;20223;-66
2020/12/11 08:03:45;;;;;;;1.20;1.20;;;;;;;18.34;45.19;98967.75;5075234;28;20620;-66
2020/12/11 08:06:12;;;;;;;1.30;1.23;;;;;;;18.41;45.29;98960.44;5076182;28;20211;-66
2020/12/11 08:08:38;;;;;;;6.87;6.37;;;;;;;18.37;42.31;98954.59;5075472;28;20591;-66
2020/12/11 08:11:05;;;;;;;10.30;9.40;;;;;;;17.95;36.52;98950.44;5074306;28;20680;-65
2020/12/11 08:13:31;;;;;;;11.70;10.67;;;;;;;17.50;36.04;98952.84;5075208;28;20194;-66
2020/12/11 08:16:01;;;;;;;11.73;10.73;;;;;;;17.14;35.33;98953.16;5075110;28;20835;-66
2020/12/11 08:18:30;;;;;;;11.27;10.27;;;;;;;16.75;35.26;98950.25;5074952;28;20554;-70
2020/12/11 08:21:00;;;;;;;11.07;10.07;;;;;;;16.31;36.08;98953.25;5075064;28;20340;-62
2020/12/11 08:23:42;;;;;;;12.10;10.90;;;;;;;16.03;36.33;98948.66;5075070;28;20191;-62
2020/12/11 08:26:17;;;;;;;11.53;10.43;;;;;;;15.70;37.10;98944.84;5074131;28;20215;-60
2020/12/11 08:28:44;;;;;;;11.70;10.60;;;;;;;15.38;37.33;98938.91;5073632;28;20206;-62
2020/12/11 08:31:24;;;;;;;11.30;10.20;;;;;;;15.13;37.74;98934.84;5073849;28;20186;-59
2020/12/11 08:34:01;;;;;;;10.37;9.40;;;;;;;15.16;38.92;98931.81;5074956;28;20190;-60
2020/12/11 08:36:28;;;;;;;9.90;9.00;;;;;;;15.33;39.43;98928.66;5074923;28;20187;-60
2020/12/11 08:39:04;;;;;;;8.50;7.80;;;;;;;15.48;39.98;98928.63;5073886;28;20207;-58
2020/12/11 08:41:31;;;;;;;8.50;7.70;;;;;;;15.64;40.09;98923.03;5074795;28;20207;-66
2020/12/11 08:43:58;;;;;;;7.63;6.93;;;;;;;15.83;40.22;98920.69;5074777;28;20185;-63
2020/12/11 08:46:37;;;;;;;6.50;5.90;;;;;;;15.98;40.11;98924.16;5074638;28;20268;-67
2020/12/11 08:49:18;;;;;;;5.90;5.40;;;;;;;16.15;40.54;98917.44;5074440;28;20386;-56
2020/12/11 08:51:44;;;;;;;5.13;4.70;;;;;;;16.34;40.79;98920.47;5073145;28;20195;-60
2020/12/11 08:54:11;;;;;;;5.20;4.80;;;;;;;16.50;40.99;98917.44;5073249;28;20212;-65
2020/12/11 08:56:42;;;;;;;4.97;4.57;;;;;;;16.67;40.53;98912.59;5073454;28;20242;-63
2020/12/11 08:59:08;;;;;;;4.63;4.23;;;;;;;16.80;40.87;98918.91;5073135;28;20556;-60
2020/12/11 09:01:34;;;;;;;4.20;3.90;;;;;;;16.96;41.07;98906.06;5071773;28;20247;-62
2020/12/11 09:04:00;;;;;;;4.07;3.70;;;;;;;17.06;41.35;98906.53;5071327;28;20531;-60
2020/12/11 09:06:26;;;;;;;3.97;3.60;;;;;;;17.17;41.34;98904.06;5072800;28;20274;-63
2020/12/11 09:08:52;;;;;;;3.60;3.30;;;;;;;17.30;40.89;98905.16;5071868;28;20208;-60
2020/12/11 09:11:19;;;;;;;3.50;3.07;;;;;;;17.39;41.46;98901.22;5069355;28;20191;-60
2020/12/11 09:13:45;;;;;;;3.37;3.10;;;;;;;17.49;41.07;98901.66;5067371;28;20206;-66
2020/12/11 09:16:11;;;;;;;3.00;2.80;;;;;;;17.60;41.67;98897.53;5074764;28;20514;-57
2020/12/11 09:18:37;;;;;;;3.10;2.80;;;;;;;17.70;41.38;98895.25;5071520;28;20269;-56
2020/12/11 09:21:03;;;;;;;2.90;2.63;;;;;;;17.82;41.74;98895.50;5072566;28;20218;-57
2020/12/11 09:23:29;;;;;;;2.70;2.50;;;;;;;17.92;42.02;98896.72;5071143;28;20215;-62
2020/12/11 09:25:55;;;;;;;2.83;2.63;;;;;;;18.03;41.92;98892.56;5072842;28;20190;-62
2020/12/11 09:28:23;;;;;;;2.77;2.57;;;;;;;18.10;41.37;98883.41;5072420;28;20214;-62
2020/12/11 09:30:49;;;;;;;2.60;2.40;;;;;;;18.20;42.02;98899.19;5072610;28;20172;-59
2020/12/11 09:33:19;;;;;;;2.70;2.47;;;;;;;18.30;41.79;98896.09;5072604;28;20194;-59
2020/12/11 09:35:45;;;;;;;2.73;2.53;;;;;;;18.38;41.98;98888.56;5072787;28;20276;-65
2020/12/11 09:38:11;;;;;;;2.40;2.20;;;;;;;18.48;41.84;98885.44;5072355;28;20203;-66
2020/12/11 09:48:34;;;;;;;2.63;2.20;;;;;;;18.78;42.00;98874.94;5072323;28;20299;-58
2020/12/11 09:51:16;;;;;;;2.20;2.10;;;;;;;18.86;42.40;98873.84;5053946;28;546894;-63
2020/12/11 09:56:09;;;;;;;2.17;1.90;;;;;;;19.00;42.07;98872.75;5073200;28;20274;-60
2020/12/11 09:58:39;;;;;;;2.00;1.90;;;;;;;19.08;42.12;98874.38;5072953;28;20717;-60
2020/12/11 10:01:06;;;;;;;2.07;1.97;;;;;;;19.14;41.99;98862.66;5073180;28;20211;-60
2020/12/11 10:03:38;;;;;;;1.83;1.73;;;;;;;19.21;42.13;98877.88;5072227;28;20198;-60
2020/12/11 10:06:08;;;;;;;2.10;2.00;;;;;;;19.27;42.16;98865.31;5071904;28;20195;-60
2020/12/11 10:08:34;;;;;;;2.47;2.27;;;;;;;19.33;42.21;98848.16;5071950;28;20642;-59
2020/12/11 10:11:00;;;;;;;2.10;2.00;;;;;;;19.39;42.38;98849.97;5071728;28;20612;-60
2020/12/11 10:13:27;;;;;;;1.80;1.70;;;;;;;19.44;42.25;98843.91;5072708;28;20556;-58
2020/12/11 10:15:53;;;;;;;2.03;1.80;;;;;;;19.49;42.40;98846.81;5071529;28;20183;-62
2020/12/11 10:18:19;;;;;;;1.97;1.87;;;;;;;19.57;42.62;98846.56;5071353;28;20203;-59
2020/12/11 10:20:45;;;;;;;2.00;1.90;;;;;;;19.61;42.31;98845.06;5071469;28;20214;-58
2020/12/11 10:23:11;;;;;;;2.50;1.97;;;;;;;19.65;42.19;98840.88;5072202;28;20652;-59
2020/12/11 10:25:37;;;;;;;2.00;1.90;;;;;;;19.68;42.31;98837.72;5072509;28;20187;-66
2020/12/11 10:28:03;;;;;;;2.00;1.90;;;;;;;19.74;42.37;98831.38;5072719;28;20278;-63
2020/12/11 10:30:29;;;;;;;1.80;1.70;;;;;;;19.78;42.36;98827.19;5072699;28;20249;-63
2020/12/11 10:32:56;;;;;;;1.83;1.63;;;;;;;19.83;42.17;98843.63;5072471;28;20190;-68
2020/12/11 10:35:22;;;;;;;2.00;1.90;;;;;;;19.87;42.36;98809.56;5073087;28;20203;-67
2020/12/11 10:37:48;;;;;;;2.00;1.90;;;;;;;19.90;42.51;98816.44;5072323;28;20203;-67
2020/12/11 10:40:14;;;;;;;1.73;1.63;;;;;;;19.91;42.42;98808.06;5072147;28;20425;-59
2020/12/11 10:42:40;;;;;;;2.23;1.60;;;;;;;19.95;42.27;98813.03;5071268;28;20548;-64
2020/12/11 10:45:06;;;;;;;2.63;1.70;;;;;;;19.95;42.42;98813.03;5072156;28;20179;-63
2020/12/11 10:47:32;;;;;;;1.70;1.60;;;;;;;19.97;42.27;98808.22;5071981;28;20215;-60
2020/12/11 10:49:58;;;;;;;3.83;1.70;;;;;;;19.99;42.62;98806.09;5071947;28;20195;-69
2020/12/11 10:52:24;;;;;;;4.43;1.70;;;;;;;20.00;42.52;98792.31;5072087;28;20675;-64
2020/12/11 10:54:53;;;;;;;3.83;1.77;;;;;;;20.02;42.65;98790.19;5072456;28;20217;-60
2020/12/11 10:57:19;;;;;;;4.10;1.80;;;;;;;20.05;42.73;98786.19;5071939;28;20199;-63
2020/12/11 10:59:45;;;;;;;1.90;1.70;;;;;;;20.07;42.44;98776.75;5070988;28;20279;-62
2020/12/11 11:02:11;;;;;;;4.37;1.80;;;;;;;20.11;42.67;98779.84;5054546;28;20258;-69
2020/12/11 11:04:37;;;;;;;2.90;1.70;;;;;;;20.14;42.48;98774.00;5070705;28;20191;-57
2020/12/11 11:07:15;;;;;;;2.80;1.90;;;;;;;20.18;42.61;98772.47;5071790;28;20183;-66
2020/12/11 11:09:49;;;;;;;2.97;1.67;;;;;;;20.21;42.82;98772.03;5072252;28;20217;-66
2020/12/11 11:12:22;;;;;;;3.57;1.90;;;;;;;20.24;42.49;98766.97;5070084;28;20191;-62
2020/12/11 11:17:56;;;;;;;4.43;1.63;;;;;;;20.30;42.73;98764.38;5071740;28;20253;-70
2020/12/11 11:23:04;;;;;;;2.10;1.40;;;;;;;20.35;42.70;98751.81;5067875;28;20238;-66
2020/12/11 11:28:15;;;;;;;3.00;1.63;;;;;;;20.40;42.80;98749.25;5072264;28;20654;-62
2020/12/11 11:30:41;;;;;;;2.63;1.47;;;;;;;20.44;42.63;98746.91;5048009;28;20668;-61
2020/12/11 11:33:07;;;;;;;5.23;1.60;;;;;;;20.46;42.77;98742.06;5061198;28;20185;-62
2020/12/11 11:35:33;;;;;;;2.60;1.60;;;;;;;20.49;42.75;98742.44;5061760;28;20197;-60
2020/12/11 11:38:01;;;;;;;3.93;1.60;;;;;;;20.54;42.77;98739.88;5062690;28;20651;-62
2020/12/11 11:40:27;;;;;;;1.90;1.70;;;;;;;20.57;42.70;98732.31;5069641;28;20215;-66
2020/12/11 11:42:53;;;;;;;3.93;1.50;;;;;;;20.59;42.74;98730.22;5072214;28;20202;-66
2020/12/11 11:45:25;;;;;;;2.13;1.60;;;;;;;20.61;42.69;98725.38;5073020;28;20184;-66
2020/12/11 11:47:54;;;;;;;3.20;1.53;;;;;;;20.65;42.55;98719.25;5071816;28;20214;-65
2020/12/11 11:50:27;;;;;;;1.80;1.43;;;;;;;20.68;42.60;98716.06;5071810;28;20284;-70
2020/12/11 11:53:10;;;;;;;2.07;1.50;;;;;;;20.70;42.57;98715.81;5069200;28;20187;-60
2020/12/11 11:55:36;;;;;;;3.67;1.70;;;;;;;20.74;42.54;98708.84;5063067;28;20180;-66